Flight Track Log - Related Links

Times and Time Zones

All times are in EDT time to prevent confusion due to time zone crossing. See the AWE759 flight status page for this flight to view local times or setup timezone preferences in your user account.

Time Position Orientation Groundspeed Altitude Reporting Facility
EDT Latitude Longitude Course Direction KTS MPH feet Rate Location/Type
Tue 08:00:38 PM 39.8776 -75.2189 77° East 175 201 800  Level FlightAware ADS-B
Tue 08:00:42 PM 39.8780 -75.2153 82° East 173 199 1,000 4,286 Climbing FlightAware ADS-B
Tue 08:00:45 PM 39.8781 -75.2119 88° East 173 199 1,300 5,143 Climbing FlightAware ADS-B
Tue 08:00:49 PM 39.8776 -75.2073 98° East 176 203 1,600 3,000 Climbing FlightAware ADS-B
Tue 08:00:55 PM 39.8764 -75.2019 106° East 184 212 1,800 2,000 Climbing FlightAware ADS-B
Tue 08:00:58 PM 39.8756 -75.1987 108° East 191 220 1,900 3,000 Climbing FlightAware ADS-B
Tue 08:01:03 PM 39.8733 -75.1925 116° Southeast 199 229 2,200 3,000 Climbing FlightAware ADS-B
Tue 08:01:14 PM 39.8689 -75.1814 117° Southeast 208 239 2,700 2,769 Climbing FlightAware ADS-B
Tue 08:01:29 PM 39.8615 -75.1638 119° Southeast 225 259 3,400 2,600 Climbing FlightAware ADS-B
Tue 08:01:44 PM 39.8529 -75.1446 120° Southeast 254 292 4,000 2,727 Climbing FlightAware ADS-B
Tue 08:01:51 PM 39.8488 -75.1351 119° Southeast 258 297 4,400 3,818 Climbing FlightAware ADS-B
Tue 08:01:55 PM 39.8461 -75.1296 123° Southeast 258 297 4,700 4,500 Climbing FlightAware ADS-B
Tue 08:01:59 PM 39.8435 -75.1254 129° Southeast 256 295 5,000 4,500 Climbing FlightAware ADS-B
Tue 08:02:03 PM 39.8404 -75.1210 133° Southeast 255 293 5,300 4,500 Climbing FlightAware ADS-B
Tue 08:02:11 PM 39.8328 -75.1137 144° Southeast 255 293 5,900 4,400 Climbing FlightAware ADS-B
Tue 08:02:18 PM 39.8254 -75.1094 156° South 259 298 6,400 4,000 Climbing FlightAware ADS-B
Tue 08:02:23 PM 39.8196 -75.1074 165° South 262 302 6,700 3,000 Climbing FlightAware ADS-B
Tue 08:02:28 PM 39.8136 -75.1067 175° South 265 305 6,900 3,000 Climbing FlightAware ADS-B
Tue 08:02:31 PM 39.8091 -75.1067 180° South 269 310 7,100 2,571 Climbing FlightAware ADS-B
Tue 08:02:35 PM 39.8049 -75.1072 185° South 275 316 7,200 1,714 Climbing FlightAware ADS-B
Tue 08:02:38 PM 39.8009 -75.1082 191° South 280 322 7,300 2,250 Climbing FlightAware ADS-B
Tue 08:02:43 PM 39.7942 -75.1106 195° South 287 330 7,500 2,250 Climbing FlightAware ADS-B
Tue 08:02:46 PM 39.7901 -75.1127 201° Southwest 292 336 7,600 2,571 Climbing FlightAware ADS-B
Tue 08:02:50 PM 39.7851 -75.1157 205° Southwest 294 338 7,800 3,600 Climbing FlightAware ADS-B
Tue 08:03:06 PM 39.7671 -75.1296 211° Southwest 294 338 8,800 4,065 Climbing FlightAware ADS-B
Tue 08:03:21 PM 39.7494 -75.1434 211° Southwest 294 338 9,900 3,600 Climbing FlightAware ADS-B
Tue 08:03:51 PM 39.7130 -75.1708 210° Southwest 316 364 11,500 1,770 Climbing FlightAware ADS-B
Tue 08:04:22 PM 39.6709 -75.2029 210° Southwest 364 419 11,700 290 Climbing FlightAware ADS-B
Tue 08:04:53 PM 39.6258 -75.2375 211° Southwest 369 425 11,800 98 Climbing FlightAware ADS-B
Tue 08:05:23 PM 39.5812 -75.2716 211° Southwest 364 419 11,800 100 Level FlightAware ADS-B
Tue 08:05:53 PM 39.5374 -75.3048 210° Southwest 368 423 11,900 316 Climbing FlightAware ADS-B
Tue 08:06:01 PM 39.5257 -75.3132 209° Southwest 374 430 12,000 2,800 Climbing FlightAware ADS-B
Tue 08:06:23 PM 39.4890 -75.3305 200° South 387 445 13,300 3,450 Climbing FlightAware ADS-B
Tue 08:06:41 PM 39.4581 -75.3381 191° South 395 455 14,300 2,750 Climbing FlightAware ADS-B
Tue 08:07:11 PM 39.4025 -75.3473 187° South 408 470 15,500 1,475 Climbing FlightAware ADS-B
Tue 08:07:42 PM 39.3448 -75.3562 187° South 405 466 15,800 295 Climbing FlightAware ADS-B
Tue 08:08:12 PM 39.2874 -75.3658 187° South 403 464 15,800  Level FlightAware ADS-B
Tue 08:08:44 PM 39.2303 -75.3762 188° South 402 463 15,800  Level FlightAware ADS-B
Tue 08:09:14 PM 39.1749 -75.3860 188° South 403 464 15,800  Level FlightAware ADS-B
Tue 08:09:46 PM 39.1144 -75.3954 187° South 404 465 15,800  Level FlightAware ADS-B
Tue 08:10:17 PM 39.0579 -75.4043 187° South 405 466 15,800 885 Level FlightAware ADS-B
Tue 08:10:47 PM 39.0018 -75.4133 187° South 409 471 16,700 2,500 Climbing FlightAware ADS-B
Tue 08:11:17 PM 38.9440 -75.4224 187° South 418 481 18,300 2,852 Climbing FlightAware ADS-B
Tue 08:11:48 PM 38.8837 -75.4316 187° South 434 499 19,600 2,459 Climbing FlightAware ADS-B
Tue 08:12:18 PM 38.8229 -75.4409 187° South 446 513 20,800 2,500 Climbing FlightAware ADS-B
Tue 08:12:48 PM 38.7600 -75.4501 187° South 455 524 22,100 2,459 Climbing FlightAware ADS-B
Tue 08:13:19 PM 38.6945 -75.4596 186° South 466 536 23,300 1,905 Climbing FlightAware ADS-B
Tue 08:13:51 PM 38.6247 -75.4699 187° South 487 560 24,100 2,438 Climbing FlightAware ADS-B
Tue 08:14:23 PM 38.5531 -75.4803 186° South 482 555 25,900 2,571 Climbing FlightAware ADS-B
Tue 08:14:54 PM 38.4836 -75.4907 187° South 496 571 26,800 2,066 Climbing FlightAware ADS-B
Tue 08:15:24 PM 38.4142 -75.5010 187° South 501 577 28,000 2,717 Climbing FlightAware ADS-B
Tue 08:15:47 PM 38.3634 -75.5138 191° South 486 559 29,200 2,743 Climbing FlightAware ADS-B
Tue 08:15:59 PM 38.3375 -75.5259 200° South 477 549 29,600 727 Climbing FlightAware ADS-B
Tue 08:16:53 PM 38.2421 -75.6072 214° Southwest 456 525 30,000 635 Climbing FlightAware ADS-B
Tue 08:17:24 PM 38.1900 -75.6544 215° Southwest 460 529 30,500 1,309 Climbing FlightAware ADS-B
Tue 08:17:48 PM 38.1450 -75.6899 212° Southwest 470 541 31,200 1,964 Climbing FlightAware ADS-B
Tue 08:18:19 PM 38.0862 -75.7327 210° Southwest 476 548 32,300 1,935 Climbing FlightAware ADS-B
Tue 08:18:50 PM 38.0262 -75.7749 209° Southwest 483 556 33,200 1,645 Climbing FlightAware ADS-B
Tue 08:19:21 PM 37.9665 -75.8167 209° Southwest 483 556 34,000 750 Climbing FlightAware ADS-B
Tue 08:19:54 PM 37.9015 -75.8621 209° Southwest 484 557 34,000  Level FlightAware ADS-B
Tue 08:20:25 PM 37.8407 -75.9042 209° Southwest 490 564 34,000  Level FlightAware ADS-B
Tue 08:20:55 PM 37.7794 -75.9468 209° Southwest 491 565 34,000  Level FlightAware ADS-B
Tue 08:21:47 PM 37.6870 -76.0100 208° Southwest 492 566 34,000  Level FlightAware ADS-B
Tue 08:22:15 PM 37.6206 -76.0560 209° Southwest 493 567 34,000  Level FlightAware ADS-B
Tue 08:22:46 PM 37.5581 -76.0990 209° Southwest 493 567 34,000  Level FlightAware ADS-B
Tue 08:23:16 PM 37.4982 -76.1402 209° Southwest 493 567 34,000  Level FlightAware ADS-B
Tue 08:23:47 PM 37.4364 -76.1825 209° Southwest 493 567 34,000  Level FlightAware ADS-B
Tue 08:24:18 PM 37.3745 -76.2249 209° Southwest 492 566 34,000  Level FlightAware ADS-B
Tue 08:24:49 PM 37.3130 -76.2669 209° Southwest 491 565 34,000  Level FlightAware ADS-B
Tue 08:25:19 PM 37.2521 -76.3085 209° Southwest 490 564 34,000  Level FlightAware ADS-B
Tue 08:25:50 PM 37.1917 -76.3495 208° Southwest 490 564 34,000  Level FlightAware ADS-B
Tue 08:26:27 PM 37.1170 -76.4001 208° Southwest 492 566 34,000  Level FlightAware ADS-B
Tue 08:26:57 PM 37.0567 -76.4412 209° Southwest 491 565 34,000  Level FlightAware ADS-B
Tue 08:27:27 PM 37.0050 -76.4760 208° Southwest 490 564 34,000  Level FlightAware ADS-B
Tue 08:27:32 PM 36.9874 -76.4882 209° Southwest 490 564 34,000  Level FlightAware ADS-B
Tue 08:28:02 PM 36.9360 -76.5230 208° Southwest 491 565 34,000  Level FlightAware ADS-B
Tue 08:28:27 PM 36.8780 -76.5622 208° Southwest 494 568 34,000  Level FlightAware ADS-B
Tue 08:29:32 PM 36.7590 -76.6420 208° Southwest 496 571 34,000  Level FlightAware ADS-B
Tue 08:30:22 PM 36.6540 -76.7120 208° Southwest 496 571 34,000  Level FlightAware ADS-B
Tue 08:31:12 PM 36.5620 -76.7740 208° Southwest 496 571 34,000  Level FlightAware ADS-B
Tue 08:31:52 PM 36.4930 -76.8190 208° Southwest 496 571 34,000  Level FlightAware ADS-B
Tue 08:32:32 PM 36.4240 -76.8650 208° Southwest 496 571 34,000  Level FlightAware ADS-B
Tue 08:33:12 PM 36.3550 -76.9100 208° Southwest 496 571 34,000  Level FlightAware ADS-B
Tue 08:33:52 PM 36.2860 -76.9560 208° Southwest 496 571 34,000  Level FlightAware ADS-B
Tue 08:34:42 PM 36.2000 -77.0120 208° Southwest 496 571 34,000  Level FlightAware ADS-B
Tue 08:35:22 PM 36.1310 -77.0580 208° Southwest 496 571 34,000  Level FlightAware ADS-B
Tue 08:37:52 PM 35.7490 -77.3120 208° Southwest 478 550 34,000  Level FlightAware ADS-B
Tue 08:38:37 PM 35.6630 -77.3880 216° Southwest 475 547 34,000  Level FlightAware ADS-B
Tue 08:39:22 PM 35.5850 -77.4680 220° Southwest 469 540 34,000  Level FlightAware ADS-B
Tue 08:40:02 PM 35.5170 -77.5350 219° Southwest 476 548 34,000  Level FlightAware ADS-B
Tue 08:40:57 PM 35.4300 -77.6210 219° Southwest 476 548 34,000  Level FlightAware ADS-B
Tue 08:41:37 PM 35.3720 -77.6790 219° Southwest 476 548 34,000  Level FlightAware ADS-B
Tue 08:42:17 PM 35.3140 -77.7370 219° Southwest 476 548 34,000  Level FlightAware ADS-B
Tue 08:42:57 PM 35.2560 -77.7950 219° Southwest 476 548 34,000  Level FlightAware ADS-B
Tue 08:43:47 PM 35.1830 -77.8670 219° Southwest 476 548 34,000  Level FlightAware ADS-B
Tue 08:44:27 PM 35.1250 -77.9240 219° Southwest 476 548 34,000  Level FlightAware ADS-B
Tue 08:45:07 PM 35.0670 -77.9820 219° Southwest 476 548 34,000  Level FlightAware ADS-B
Tue 08:45:47 PM 35.0090 -78.0400 219° Southwest 476 548 34,000  Level FlightAware ADS-B
Tue 08:46:27 PM 34.9500 -78.0970 218° Southwest 476 548 34,000  Level FlightAware ADS-B
Tue 08:47:17 PM 34.8780 -78.1690 219° Southwest 476 548 34,000  Level FlightAware ADS-B
Tue 08:47:57 PM 34.8190 -78.2260 218° Southwest 476 548 34,000  Level FlightAware ADS-B
Tue 08:48:37 PM 34.7610 -78.2840 219° Southwest 476 548 34,000  Level FlightAware ADS-B
Tue 08:49:17 PM 34.7030 -78.3410 219° Southwest 476 548 34,000  Level FlightAware ADS-B
Tue 08:49:57 PM 34.6450 -78.3980 219° Southwest 476 548 34,000  Level FlightAware ADS-B
Tue 08:55:37 PM 33.9330 -79.0720 218° Southwest 453 521 34,000  Level FlightAware ADS-B
Tue 08:56:22 PM 33.8600 -79.1410 218° Southwest 452 520 34,000  Level FlightAware ADS-B
Tue 08:57:02 PM 33.7930 -79.2050 218° Southwest 451 519 34,000  Level FlightAware ADS-B
Tue 08:57:47 PM 33.7190 -79.2740 218° Southwest 450 518 34,000  Level FlightAware ADS-B
Tue 08:58:27 PM 33.6540 -79.3350 218° Southwest 450 518 34,000  Level FlightAware ADS-B
Tue 08:59:07 PM 33.5940 -79.3920 218° Southwest 449 517 34,000  Level FlightAware ADS-B
Tue 08:59:52 PM 33.5150 -79.4660 218° Southwest 447 514 34,000  Level FlightAware ADS-B
Tue 09:00:32 PM 33.4510 -79.5250 218° Southwest 445 512 34,000  Level FlightAware ADS-B
Tue 09:01:17 PM 33.3780 -79.5940 218° Southwest 443 510 34,000  Level FlightAware ADS-B
Tue 09:01:57 PM 33.3130 -79.6550 218° Southwest 441 507 34,000  Level FlightAware ADS-B
Tue 09:02:37 PM 33.2550 -79.7080 217° Southwest 441 507 34,000  Level FlightAware ADS-B
Tue 09:03:22 PM 33.1780 -79.7800 218° Southwest 440 506 34,000  Level FlightAware ADS-B
Tue 09:04:02 PM 33.1140 -79.8390 218° Southwest 441 507 34,000  Level FlightAware ADS-B
Tue 09:04:47 PM 33.0390 -79.9070 217° Southwest 441 507 34,000  Level FlightAware ADS-B
Tue 09:05:27 PM 32.9760 -79.9650 218° Southwest 439 505 34,000  Level FlightAware ADS-B
Tue 09:06:07 PM 32.9110 -80.0240 217° Southwest 441 507 34,000  Level FlightAware ADS-B
Tue 09:06:52 PM 32.8340 -80.0840 213° Southwest 444 511 34,000  Level FlightAware ADS-B
Tue 09:07:32 PM 32.7670 -80.1340 212° Southwest 443 510 34,000  Level FlightAware ADS-B
Tue 09:08:12 PM 32.6950 -80.1870 212° Southwest 443 510 34,000  Level FlightAware ADS-B
Tue 09:08:57 PM 32.6210 -80.2420 212° Southwest 443 510 34,000  Level FlightAware ADS-B
Tue 09:09:37 PM 32.5500 -80.2940 212° Southwest 443 510 34,000  Level FlightAware ADS-B
Tue 09:10:22 PM 32.4740 -80.3500 212° Southwest 443 510 34,000  Level FlightAware ADS-B
Tue 09:10:57 PM 32.4170 -80.3940 213° Southwest 443 510 34,000  Level FlightAware ADS-B
Tue 09:12:42 PM 32.2360 -80.5250 211° Southwest 34,000  Level FlightAware ADS-B
Tue 09:13:22 PM 32.1770 -80.5670 211° Southwest 441 507 34,000  Level FlightAware ADS-B
Tue 09:14:07 PM 32.0880 -80.6320 212° Southwest 441 507 34,000  Level FlightAware ADS-B
Tue 09:14:42 PM 32.0310 -80.6730 211° Southwest 441 507 34,000  Level FlightAware ADS-B
Tue 09:15:27 PM 31.9530 -80.7290 211° Southwest 441 507 34,000  Level FlightAware ADS-B
Tue 09:16:17 PM 31.8580 -80.7980 212° Southwest 441 507 34,000  Level FlightAware ADS-B
Tue 09:17:07 PM 31.7730 -80.8590 211° Southwest 442 509 34,000  Level FlightAware ADS-B
Tue 09:17:47 PM 31.7110 -80.9040 212° Southwest 442 509 34,000  Level FlightAware ADS-B
Tue 09:18:32 PM 31.6270 -80.9640 211° Southwest 442 509 34,000  Level FlightAware ADS-B
Tue 09:19:07 PM 31.5760 -81.0000 211° Southwest 442 509 34,000  Level FlightAware ADS-B
Tue 09:19:47 PM 31.5020 -81.0510 210° Southwest 444 511 34,000  Level FlightAware ADS-B
Tue 09:20:37 PM 31.4120 -81.0910 201° Southwest 453 521 34,000  Level FlightAware ADS-B
Tue 09:21:17 PM 31.3450 -81.1200 200° South 453 521 34,000  Level FlightAware ADS-B
Tue 09:21:57 PM 31.2780 -81.1480 200° South 453 521 34,000  Level FlightAware ADS-B
Tue 09:22:37 PM 31.2110 -81.1770 200° South 453 521 34,000  Level FlightAware ADS-B
Tue 09:23:27 PM 31.1270 -81.2120 200° South 453 521 34,000  Level FlightAware ADS-B
Tue 09:24:07 PM 31.0600 -81.2410 200° South 453 521 34,000  Level FlightAware ADS-B
Tue 09:24:47 PM 30.9930 -81.2690 200° South 453 521 34,000  Level FlightAware ADS-B
Tue 09:25:27 PM 30.9260 -81.2980 200° South 453 521 34,000  Level FlightAware ADS-B
Tue 09:26:07 PM 30.8590 -81.3260 200° South 453 521 34,000  Level FlightAware ADS-B
Tue 09:26:57 PM 30.7760 -81.3620 200° South 453 521 34,000  Level FlightAware ADS-B
Tue 09:27:37 PM 30.7090 -81.3900 200° South 453 521 34,000  Level FlightAware ADS-B
Tue 09:28:17 PM 30.6420 -81.4180 200° South 453 521 34,000  Level FlightAware ADS-B
Tue 09:28:57 PM 30.5750 -81.4470 200° South 453 521 34,000  Level FlightAware ADS-B
Tue 09:29:37 PM 30.5080 -81.4750 200° South 453 521 34,000  Level FlightAware ADS-B
Tue 09:30:21 PM 30.0853 -81.1378 200° South 477 549 34,000 -58 Level Jacksonville Center
Tue 09:31:21 PM 29.9536 -81.1331 178° South 477 549 33,900 -1,250 Descending Jacksonville Center
Tue 09:32:21 PM 29.8222 -81.1306 179° South 477 549 31,500 -2,927 Descending Jacksonville Center
Tue 09:37:32 PM 29.1840 -81.0940 179° South 419 482 15,800 -3,026 Descending FlightAware ADS-B
Tue 09:38:12 PM 29.1020 -81.0870 176° South 403 464 13,800 -2,600 Descending FlightAware ADS-B
Tue 09:39:02 PM 29.0070 -81.0770 175° South 393 452 11,900 -1,263 Descending FlightAware ADS-B
Tue 09:39:47 PM 28.9310 -81.0660 173° South 374 430 11,800 -71 Descending FlightAware ADS-B
Tue 09:40:27 PM 28.8610 -81.0540 171° South 376 433 11,800 -282 Level FlightAware ADS-B
Tue 09:41:12 PM 28.7850 -81.0530 179° South 364 419 11,400 -706 Descending FlightAware ADS-B
Tue 09:41:52 PM 28.7200 -81.0740 196° South 340 391 10,800 -975 Descending FlightAware ADS-B
Tue 09:42:32 PM 28.6620 -81.0930 196° South 317 365 10,100 -943 Descending FlightAware ADS-B
Tue 09:43:02 PM 28.6200 -81.1070 196° South 303 349 9,700 -982 Descending FlightAware ADS-B
Tue 09:43:27 PM 28.5860 -81.1180 196° South 286 329 9,200 -1,418 Descending FlightAware ADS-B
Tue 09:43:57 PM 28.5480 -81.1300 196° South 289 333 8,400 -1,700 Descending FlightAware ADS-B
Tue 09:44:27 PM 28.5060 -81.1440 196° South 298 343 7,500 -1,527 Descending FlightAware ADS-B
Tue 09:44:52 PM 28.4730 -81.1540 195° South 286 329 7,000 -1,309 Descending FlightAware ADS-B
Tue 09:45:22 PM 28.4350 -81.1670 197° South 282 325 6,300 -1,418 Descending FlightAware ADS-B
Tue 09:45:47 PM 28.4020 -81.1760 193° South 280 322 5,700 -1,309 Descending FlightAware ADS-B
Tue 09:46:17 PM 28.3630 -81.1780 183° South 274 315 5,100 -1,467 Descending FlightAware ADS-B
Tue 09:46:32 PM 28.3450 -81.1840 196° South 274 315 4,600 -2,400 Descending FlightAware ADS-B
Tue 09:46:57 PM 28.3190 -81.2060 217° Southwest 268 308 3,500 -2,400 Descending FlightAware ADS-B
Tue 09:47:27 PM 28.2910 -81.2360 223° Southwest 269 310 2,400 -1,867 Descending FlightAware ADS-B
Tue 09:47:42 PM 28.2860 -81.2560 254° West 254 292 2,100 -1,050 Descending FlightAware ADS-B
Tue 09:48:07 PM 28.2930 -81.2850 285° West 228 262 1,700 -900 Descending FlightAware ADS-B
Tue 09:48:22 PM 28.3040 -81.2990 312° West 206 237 1,500 -400 Descending FlightAware ADS-B
Tue 09:48:52 PM 28.3270 -81.3100 337° Northwest 165 190 1,400 -109 Descending FlightAware ADS-B
Tue 09:49:17 PM 28.3450 -81.3110 357° North 133 153 1,400 -327 Level FlightAware ADS-B
Tue 09:49:47 PM 28.3640 -81.3110 360° North 117 135 1,100 -600 Descending FlightAware ADS-B
Tue 09:50:17 PM 28.3800 -81.3120 357° North 115 132 800 -655 Descending FlightAware ADS-B
Tue 09:50:42 PM 28.3940 -81.3120 360° North 118 136 500 -600 Descending FlightAware ADS-B
Tue 09:51:07 PM 28.4070 -81.3120 360° North 114 131 300 -480 Descending FlightAware ADS-B
Tue 09:51:32 PM 28.4210 -81.3120 360° North 115 132 -720 Descending FlightAware ADS-B

Login

Don't have an account? Register now (free) for customized features, flight alerts, and more!